Terminal Aerodrome Forecast
Issued by NWS Pittsburgh, PA

Current Version | Previous Version | Graphics & Text | Print | Product List | Glossary On
Versions: 1 2 3 4 5 6 7 8 9 10 11 12 13 14 15 16 17 18 19 20 21 22 23 24 25 26 27
000
FTUS41 KPBZ 270200 AAA
TAFPIT
TAF AMD
KPIT 270259Z 2703/2806 18004KT P6SM BKN250
     FM270900 22003KT P6SM VCSH BKN040
     FM271600 32008KT P6SM BKN035
     FM280300 34005KT P6SM SCT035=

USA.gov is the U.S. government's official web portal to all federal, state and local government web resources and services.